TimeMDT,TemperatureF,Dew PointF,Humidity,Sea Level PressureIn,VisibilityMPH,Wind Direction,Wind SpeedMPH,Gust SpeedMPH,PrecipitationIn,Events,Conditions,WindDirDegrees,DateUTC
12:56 AM,70.0,42.1,36,29.73,10.0,SSE,9.2,-,N/A,,Clear,160,2013-07-11 06:56:00
1:56 AM,70.0,41.0,35,29.72,10.0,Calm,Calm,-,N/A,,Clear,0,2013-07-11 07:56:00
2:56 AM,71.1,45.0,39,29.70,10.0,WSW,10.4,-,N/A,,Clear,250,2013-07-11 08:56:00
3:56 AM,68.0,45.0,43,29.72,10.0,SW,5.8,-,N/A,,Clear,230,2013-07-11 09:56:00
4:56 AM,62.1,46.0,56,29.74,10.0,South,5.8,-,N/A,,Clear,180,2013-07-11 10:56:00
5:56 AM,62.1,46.0,56,29.75,10.0,SSW,5.8,-,N/A,,Clear,210,2013-07-11 11:56:00
6:56 AM,66.9,46.0,47,29.75,10.0,SSW,8.1,-,N/A,,Clear,210,2013-07-11 12:56:00
7:56 AM,73.9,46.9,38,29.75,10.0,Calm,Calm,-,N/A,,Clear,0,2013-07-11 13:56:00
8:56 AM,78.1,46.9,33,29.75,10.0,SW,4.6,-,N/A,,Clear,230,2013-07-11 14:56:00
10:56 AM,84.9,43.0,23,29.74,10.0,SW,9.2,-,N/A,,Clear,230,2013-07-11 16:56:00
11:56 AM,84.9,39.9,20,29.75,10.0,SW,8.1,-,N/A,,Clear,220,2013-07-11 17:56:00
12:56 PM,87.1,41.0,20,29.73,10.0,SW,11.5,20.7,N/A,,Clear,220,2013-07-11 18:56:00
1:56 PM,87.1,39.0,18,29.73,10.0,WSW,11.5,23.0,N/A,,Clear,240,2013-07-11 19:56:00
2:56 PM,88.0,39.0,18,29.72,10.0,SW,16.1,20.7,N/A,,Partly Cloudy,220,2013-07-11 20:56:00
3:56 PM,89.1,37.9,16,29.71,10.0,WSW,18.4,27.6,N/A,,Clear,240,2013-07-11 21:56:00
4:56 PM,89.1,39.0,17,29.70,10.0,WSW,15.0,-,N/A,,Clear,240,2013-07-11 22:56:00
5:56 PM,87.1,37.0,17,29.70,10.0,SW,16.1,20.7,N/A,,Partly Cloudy,220,2013-07-11 23:56:00
6:56 PM,84.0,39.0,20,29.71,10.0,SSW,15.0,-,N/A,,Partly Cloudy,200,2013-07-12 00:56:00
7:26 PM,75.2,48.2,38,29.74,10.0,SSE,17.3,40.3,0.00,Rain-Thunderstorm,Light Thunderstorms and Rain,160,2013-07-12 01:26:00
7:41 PM,78.8,46.4,32,29.75,10.0,South,9.2,-,0.00,,Overcast,190,2013-07-12 01:41:00
7:56 PM,80.1,43.0,27,29.73,10.0,SW,12.7,-,0.00,,Mostly Cloudy,230,2013-07-12 01:56:00
8:56 PM,75.9,43.0,31,29.74,10.0,SSW,8.1,-,0.00,,Scattered Clouds,200,2013-07-12 02:56:00
9:56 PM,75.0,39.9,28,29.77,10.0,SW,19.6,34.5,N/A,,Overcast,230,2013-07-12 03:56:00
10:56 PM,73.0,39.0,29,29.78,10.0,South,21.9,26.5,N/A,,Mostly Cloudy,190,2013-07-12 04:56:00
11:56 PM,68.0,43.0,40,29.79,10.0,South,16.1,-,0.00,,Clear,180,2013-07-12 05:56:00